Time;durP1;ratioP1;P1;durP2;ratioP2;P2;SDS_P1;SDS_P2;PMS_P1;PMS_P2;Temp;Humidity;BMP_temperature;BMP_pressure;BME280_temperature;BME280_humidity;BME280_pressure;Samples;Min_cycle;Max_cycle;Signal;HPM_P1;HPM_P2
2022/05/23 00:00:17;;;;;;;2.97;1.50;;;19.20;94.40;;;;;;5115771;28;20032;-63
2022/05/23 00:02:43;;;;;;;2.88;1.17;;;19.20;94.60;;;;;;5115669;28;20023;-61
2022/05/23 00:05:10;;;;;;;1.63;1.10;;;19.10;94.70;;;;;;5116010;28;20100;-63
2022/05/23 00:07:39;;;;;;;2.05;1.10;;;19.00;94.90;;;;;;5115883;28;20058;-61
2022/05/23 00:10:07;;;;;;;1.80;1.23;;;18.90;95.10;;;;;;5115590;28;20024;-62
2022/05/23 00:12:32;;;;;;;2.47;1.30;;;18.80;95.40;;;;;;5115535;28;20529;-62
2022/05/23 00:14:58;;;;;;;2.90;1.00;;;18.70;95.70;;;;;;5115552;28;20016;-61
2022/05/23 00:17:24;;;;;;;1.83;1.55;;;18.70;95.90;;;;;;5115888;28;20019;-62
2022/05/23 00:19:50;;;;;;;2.67;1.20;;;18.70;96.00;;;;;;5115539;28;20034;-61
2022/05/23 00:22:16;;;;;;;2.92;1.00;;;18.70;96.10;;;;;;5097128;28;20039;-62
2022/05/23 00:24:42;;;;;;;3.42;1.10;;;18.60;96.10;;;;;;5114950;28;20035;-62
2022/05/23 00:27:11;;;;;;;3.47;1.27;;;18.50;96.40;;;;;;5114771;28;20020;-62
2022/05/23 00:29:37;;;;;;;2.15;1.25;;;18.50;96.70;;;;;;5115333;28;20027;-61
2022/05/23 00:37:31;;;;;;;3.50;1.40;;;18.50;96.80;;;;;;5115117;28;20080;-62
2022/05/23 00:39:57;;;;;;;2.72;1.45;;;18.50;97.00;;;;;;5115229;28;20198;-62
2022/05/23 00:45:17;;;;;;;3.63;1.13;;;18.50;96.90;;;;;;5137761;22;20058;-66
2022/05/23 00:47:43;;;;;;;4.35;1.60;;;18.50;96.70;;;;;;5096742;28;20489;-66
2022/05/23 00:50:10;;;;;;;1.85;1.30;;;18.50;96.60;;;;;;5114904;28;20042;-66
2022/05/23 00:52:43;;;;;;;2.72;1.27;;;18.40;96.80;;;;;;5114988;28;20038;-65
2022/05/23 00:55:35;;;;;;;1.67;1.10;;;18.40;96.90;;;;;;5115182;28;20383;-66
2022/05/23 00:58:05;;;;;;;3.70;1.27;;;18.40;97.00;;;;;;5115780;28;20080;-67
2022/05/23 01:00:31;;;;;;;3.20;1.23;;;18.30;97.10;;;;;;5096359;28;20085;-66
2022/05/23 01:03:03;;;;;;;1.83;1.02;;;18.40;97.30;;;;;;5114834;28;20035;-65
2022/05/23 01:05:29;;;;;;;2.63;1.13;;;18.40;97.40;;;;;;5096315;28;20088;-66
2022/05/23 01:07:55;;;;;;;1.60;1.17;;;18.30;97.40;;;;;;5097634;28;20035;-66
2022/05/23 01:10:21;;;;;;;2.03;1.20;;;18.30;97.60;;;;;;5095793;28;20031;-66
2022/05/23 01:12:46;;;;;;;4.18;1.20;;;18.10;97.90;;;;;;5114020;28;20019;-66
2022/05/23 01:15:18;;;;;;;3.28;1.35;;;18.00;98.30;;;;;;5113883;28;20485;-66
2022/05/23 01:17:44;;;;;;;2.97;1.63;;;17.90;98.40;;;;;;5114326;28;20043;-67
2022/05/23 01:20:10;;;;;;;1.95;1.35;;;17.90;98.70;;;;;;5113969;28;20019;-66
2022/05/23 01:22:40;;;;;;;;;;;17.90;98.80;;;;;;5095920;28;20035;-66
2022/05/23 01:25:18;;;;;;;2.65;1.17;;;17.90;98.90;;;;;;5114105;28;19954;-66
2022/05/23 01:27:45;;;;;;;3.08;1.25;;;17.80;99.20;;;;;;5095698;28;20420;-66
2022/05/23 01:30:11;;;;;;;2.88;1.10;;;17.80;99.40;;;;;;5114249;28;20434;-66
2022/05/23 01:32:38;;;;;;;4.20;1.30;;;17.80;99.40;;;;;;5113821;28;20482;-66
2022/05/23 01:35:05;;;;;;;2.55;1.40;;;17.70;99.50;;;;;;5113875;28;20024;-66
2022/05/23 01:37:31;;;;;;;2.13;1.23;;;17.70;99.70;;;;;;5113134;28;20035;-66
2022/05/23 01:39:56;;;;;;;2.13;1.02;;;17.70;99.90;;;;;;5113816;28;20027;-66
2022/05/23 01:42:22;;;;;;;2.00;1.35;;;17.70;99.90;;;;;;5095217;28;20055;-66
2022/05/23 01:44:47;;;;;;;2.97;1.40;;;17.70;99.90;;;;;;5113402;28;20128;-66
2022/05/23 01:47:17;;;;;;;2.05;1.08;;;17.70;99.90;;;;;;5113507;28;20099;-66
2022/05/23 01:49:42;;;;;;;3.63;1.75;;;17.60;99.90;;;;;;5113390;28;20180;-66
2022/05/23 01:52:10;;;;;;;1.75;1.20;;;17.50;99.90;;;;;;5113785;28;20110;-66
2022/05/23 01:54:37;;;;;;;3.95;1.50;;;17.40;99.90;;;;;;5095382;28;20034;-67
2022/05/23 01:57:03;;;;;;;2.50;1.35;;;17.30;99.90;;;;;;5113655;28;20128;-66
2022/05/23 02:02:14;;;;;;;2.47;1.40;;;17.40;99.90;;;;;;5113182;28;20165;-66
2022/05/23 02:04:40;;;;;;;2.03;1.25;;;17.50;99.90;;;;;;5112964;28;20370;-66
2022/05/23 02:07:06;;;;;;;1.65;1.10;;;17.60;99.90;;;;;;5094839;28;20114;-66
2022/05/23 02:09:32;;;;;;;2.20;1.30;;;17.60;99.90;;;;;;5113149;28;20389;-66
2022/05/23 02:11:58;;;;;;;2.33;1.30;;;17.70;99.90;;;;;;5112972;28;20051;-66
2022/05/23 02:14:24;;;;;;;2.55;1.58;;;17.70;99.90;;;;;;5113104;28;20035;-66
2022/05/23 02:16:50;;;;;;;2.25;1.10;;;17.70;99.90;;;;;;5094812;28;20027;-67
2022/05/23 02:19:16;;;;;;;2.92;1.58;;;17.70;99.90;;;;;;5113111;28;20384;-67
2022/05/23 02:21:41;;;;;;;2.63;1.45;;;17.70;99.90;;;;;;5094484;28;20479;-67
2022/05/23 02:24:07;;;;;;;2.33;1.00;;;17.60;99.90;;;;;;5112847;28;20110;-66
2022/05/23 02:26:34;;;;;;;2.67;1.25;;;17.60;99.90;;;;;;5112910;28;20024;-66
2022/05/23 02:29:00;;;;;;;4.03;1.48;;;17.50;99.90;;;;;;5113103;28;20419;-66
2022/05/23 02:31:27;;;;;;;2.10;1.17;;;17.60;99.90;;;;;;5113058;28;20031;-66
2022/05/23 02:33:52;;;;;;;4.75;1.55;;;17.60;99.90;;;;;;5094368;28;20196;-67
2022/05/23 02:36:18;;;;;;;1.40;1.00;;;17.60;99.90;;;;;;5094718;28;20047;-67
2022/05/23 02:38:43;;;;;;;2.70;1.20;;;17.60;99.90;;;;;;5112743;28;20384;-67
2022/05/23 02:41:09;;;;;;;3.13;1.30;;;17.60;99.90;;;;;;5094520;28;20027;-67
2022/05/23 02:43:35;;;;;;;1.80;1.30;;;17.60;99.90;;;;;;5112573;28;20058;-67
2022/05/23 02:46:00;;;;;;;3.78;1.20;;;17.60;99.90;;;;;;5094642;28;20397;-66
2022/05/23 02:48:26;;;;;;;3.22;1.30;;;17.50;99.90;;;;;;5113526;28;20058;-66
2022/05/23 02:50:52;;;;;;;3.35;1.52;;;17.60;99.90;;;;;;5116658;28;20027;-66
2022/05/23 02:53:17;;;;;;;3.92;1.40;;;17.60;99.90;;;;;;5116960;28;20026;-66
2022/05/23 02:55:43;;;;;;;2.65;1.42;;;17.60;99.90;;;;;;5098466;28;20055;-66
2022/05/23 02:58:09;;;;;;;3.40;1.30;;;17.60;99.90;;;;;;5117241;28;20547;-66
2022/05/23 03:00:35;;;;;;;2.40;1.38;;;17.70;99.90;;;;;;5116706;28;20026;-67
2022/05/23 03:03:03;;;;;;;;;;;17.70;99.90;;;;;;5117036;28;20393;-67
2022/05/23 03:05:38;;;;;;;2.47;1.40;;;17.80;99.90;;;;;;5116573;28;19904;-67
2022/05/23 03:08:04;;;;;;;2.70;1.48;;;17.80;99.90;;;;;;5098095;28;20068;-67
2022/05/23 03:10:30;;;;;;;2.10;1.15;;;17.80;99.90;;;;;;5116528;28;20028;-67
2022/05/23 03:12:55;;;;;;;4.43;1.60;;;17.90;99.90;;;;;;5116344;28;20020;-67
2022/05/23 03:15:22;;;;;;;3.67;1.55;;;17.90;99.90;;;;;;5116408;28;20016;-67
2022/05/23 03:17:47;;;;;;;3.10;1.38;;;17.90;99.90;;;;;;5116055;28;20080;-67
2022/05/23 03:20:14;;;;;;;3.30;1.30;;;18.00;99.90;;;;;;5116236;28;20024;-67
2022/05/23 03:28:09;;;;;;;2.58;1.20;;;18.20;99.90;;;;;;5116235;28;20038;-67
2022/05/23 03:30:35;;;;;;;2.38;1.40;;;18.20;99.90;;;;;;5116399;28;20419;-67
2022/05/23 03:33:01;;;;;;;2.28;1.35;;;18.30;99.90;;;;;;5115780;28;20404;-66
2022/05/23 03:35:29;;;;;;;4.45;1.30;;;18.30;99.90;;;;;;5115912;28;20020;-67
2022/05/23 03:37:55;;;;;;;5.45;1.67;;;18.30;99.90;;;;;;5116056;28;20488;-67
2022/05/23 03:40:21;;;;;;;9.52;2.80;;;18.30;99.90;;;;;;5116188;28;20055;-67
2022/05/23 03:42:47;;;;;;;8.40;2.60;;;18.30;99.90;;;;;;5097877;28;20491;-67
2022/05/23 03:45:13;;;;;;;8.35;2.35;;;18.10;99.90;;;;;;5115539;28;20058;-67
2022/05/23 03:47:38;;;;;;;6.10;2.20;;;17.90;99.90;;;;;;5115609;28;20051;-67
2022/05/23 03:50:05;;;;;;;8.30;2.80;;;17.60;99.90;;;;;;5115459;28;20027;-67
2022/05/23 03:52:30;;;;;;;8.48;2.67;;;17.30;99.90;;;;;;5115393;28;20047;-67
2022/05/23 03:54:56;;;;;;;7.75;2.60;;;17.10;99.90;;;;;;5115234;28;20454;-68
2022/05/23 03:57:23;;;;;;;5.50;2.78;;;16.90;99.90;;;;;;5115315;28;20035;-67
2022/05/23 03:59:49;;;;;;;3.90;2.53;;;16.70;99.90;;;;;;5114842;28;20068;-67
2022/05/23 04:02:15;;;;;;;10.80;3.22;;;16.60;99.90;;;;;;5115119;28;20024;-67
2022/05/23 04:04:40;;;;;;;8.73;3.33;;;16.50;99.90;;;;;;5115426;28;20500;-67
2022/05/23 04:07:07;;;;;;;5.43;2.90;;;16.50;99.90;;;;;;5115378;28;20038;-66
2022/05/23 04:09:33;;;;;;;4.97;2.85;;;16.70;99.90;;;;;;5115006;28;20281;-66
2022/05/23 04:11:59;;;;;;;7.50;2.92;;;16.70;99.90;;;;;;5115065;28;20492;-66
2022/05/23 04:14:26;;;;;;;5.35;3.00;;;16.60;99.90;;;;;;5114992;28;20079;-66
2022/05/23 04:16:52;;;;;;;5.82;2.97;;;16.50;99.90;;;;;;5115191;28;20015;-66
2022/05/23 04:19:18;;;;;;;;;;;16.60;99.90;;;;;;5097085;28;20019;-66
2022/05/23 04:21:45;;;;;;;11.07;3.28;;;16.60;99.90;;;;;;5114803;28;19904;-66
2022/05/23 04:24:13;;;;;;;8.77;3.50;;;16.50;99.90;;;;;;5114695;28;20027;-66
2022/05/23 04:26:38;;;;;;;8.30;3.47;;;16.30;99.90;;;;;;5114642;28;20020;-66
2022/05/23 04:29:06;;;;;;;5.80;2.90;;;16.10;99.90;;;;;;5096567;28;20030;-66
2022/05/23 04:31:33;;;;;;;9.90;4.00;;;16.30;99.90;;;;;;5114724;28;20072;-65
2022/05/23 04:36:43;;;;;;;8.02;4.32;;;16.00;99.90;;;;;;5114808;28;20059;-65
2022/05/23 04:39:09;;;;;;;6.22;3.30;;;15.80;99.90;;;;;;5114685;28;20063;-65
2022/05/23 04:41:35;;;;;;;10.25;3.72;;;16.00;99.90;;;;;;5114678;28;20051;-65
2022/05/23 04:44:00;;;;;;;5.90;3.63;;;16.10;99.90;;;;;;5114485;28;20035;-65
2022/05/23 04:46:27;;;;;;;8.05;3.58;;;16.10;99.90;;;;;;5114329;28;20032;-64
2022/05/23 04:51:39;;;;;;;5.50;3.50;;;16.30;99.90;;;;;;5114792;28;20078;-65
2022/05/23 04:54:05;;;;;;;9.55;3.78;;;16.20;99.90;;;;;;5114513;28;20068;-64
2022/05/23 04:56:31;;;;;;;4.43;3.67;;;16.10;99.90;;;;;;5096133;28;20026;-65
2022/05/23 04:58:57;;;;;;;9.05;3.83;;;16.00;99.90;;;;;;5095988;28;20031;-65
2022/05/23 05:01:23;;;;;;;7.35;3.72;;;16.00;99.90;;;;;;5114405;28;20036;-65
2022/05/23 05:03:49;;;;;;;6.18;3.35;;;15.90;99.90;;;;;;5114461;28;20102;-64
2022/05/23 05:06:15;;;;;;;7.03;3.55;;;15.90;99.90;;;;;;5114417;28;20031;-64
2022/05/23 05:08:41;;;;;;;6.50;3.60;;;15.90;99.90;;;;;;5114495;28;20093;-64
2022/05/23 05:11:07;;;;;;;6.85;3.58;;;15.90;99.90;;;;;;5095067;28;20375;-64
2022/05/23 05:13:35;;;;;;;7.55;3.75;;;15.90;99.90;;;;;;5113724;28;20122;-64
2022/05/23 05:16:03;;;;;;;9.52;4.28;;;15.90;99.90;;;;;;5113896;28;20456;-65
2022/05/23 05:18:30;;;;;;;6.20;3.45;;;15.90;99.90;;;;;;5113630;28;20020;-65
2022/05/23 05:20:57;;;;;;;6.82;4.18;;;15.90;99.90;;;;;;5113698;28;20023;-66
2022/05/23 05:23:24;;;;;;;4.53;3.53;;;16.10;99.90;;;;;;5095370;28;20027;-65
2022/05/23 05:25:52;;;;;;;6.55;4.07;;;16.40;99.90;;;;;;5095524;28;20131;-65
2022/05/23 05:28:18;;;;;;;8.20;3.85;;;16.50;99.90;;;;;;5114263;28;20027;-66
2022/05/23 05:30:51;;;;;;;6.18;3.55;;;16.50;99.90;;;;;;5113954;28;20031;-66
2022/05/23 05:33:20;;;;;;;6.32;3.42;;;16.50;99.90;;;;;;5095320;28;20026;-65
2022/05/23 05:35:49;;;;;;;5.00;3.03;;;16.30;99.90;;;;;;5113560;28;20019;-65
2022/05/23 05:38:25;;;;;;;4.95;3.35;;;16.30;99.90;;;;;;5115167;28;20020;-65
2022/05/23 05:40:57;;;;;;;5.85;3.08;;;16.40;99.90;;;;;;5115191;28;20081;-64
2022/05/23 05:43:26;;;;;;;4.63;2.63;;;16.50;99.90;;;;;;5113708;28;20028;-64
2022/05/23 05:45:59;;;;;;;4.18;2.45;;;16.70;99.90;;;;;;5113929;28;20023;-63
2022/05/23 05:48:25;;;;;;;4.28;3.00;;;16.80;99.90;;;;;;5095285;28;20382;-68
2022/05/23 05:50:51;;;;;;;6.40;2.65;;;16.90;99.90;;;;;;5113521;28;20051;-66
2022/05/23 05:53:31;;;;;;;6.82;2.45;;;16.80;99.90;;;;;;5094808;28;20026;-66
2022/05/23 05:56:00;;;;;;;5.53;2.83;;;16.80;99.90;;;;;;5113437;28;20061;-65
2022/05/23 05:58:26;;;;;;;3.33;2.35;;;16.90;99.90;;;;;;5094792;28;20028;-66
2022/05/23 06:00:51;;;;;;;4.45;3.05;;;17.20;99.90;;;;;;5113302;28;20038;-66
2022/05/23 06:03:17;;;;;;;4.00;2.80;;;17.10;99.90;;;;;;5113344;28;20400;-66
2022/05/23 06:11:23;;;;;;;4.20;2.60;;;17.60;99.90;;;;;;5113326;28;20042;-66
2022/05/23 06:13:49;;;;;;;4.70;2.40;;;17.60;99.90;;;;;;5113512;28;20091;-66
2022/05/23 06:16:15;;;;;;;4.70;2.65;;;17.70;99.90;;;;;;5112911;28;20072;-66
2022/05/23 06:18:41;;;;;;;4.50;2.15;;;17.70;99.90;;;;;;5094547;28;20031;-66
2022/05/23 06:21:09;;;;;;;4.30;2.80;;;17.90;99.90;;;;;;5094788;28;20114;-66
2022/05/23 06:23:39;;;;;;;4.15;2.50;;;17.80;99.90;;;;;;5097157;28;20202;-66
2022/05/23 06:26:05;;;;;;;8.13;2.45;;;17.90;99.90;;;;;;5116832;28;20024;-66
2022/05/23 06:28:30;;;;;;;10.50;2.75;;;18.00;99.90;;;;;;5098555;28;20441;-67
2022/05/23 06:30:57;;;;;;;5.57;2.53;;;18.10;99.90;;;;;;5098194;28;20035;-67
2022/05/23 06:33:24;;;;;;;7.32;3.17;;;18.20;99.90;;;;;;5116707;28;20016;-67
2022/05/23 06:35:49;;;;;;;5.88;2.83;;;18.40;99.90;;;;;;5098415;28;20032;-65
2022/05/23 06:38:16;;;;;;;4.18;2.90;;;18.70;99.90;;;;;;5116968;28;20484;-67
2022/05/23 06:40:42;;;;;;;5.55;2.40;;;18.90;99.90;;;;;;5116892;28;20051;-66
2022/05/23 06:43:08;;;;;;;6.53;3.05;;;19.10;99.90;;;;;;5116723;28;20061;-66
2022/05/23 06:45:34;;;;;;;4.28;2.55;;;19.30;99.90;;;;;;5137554;23;20104;-63
2022/05/23 06:47:59;;;;;;;5.88;2.80;;;19.50;99.90;;;;;;5137628;27;20490;-65
2022/05/23 06:50:25;;;;;;;3.15;2.67;;;19.50;99.90;;;;;;5118934;27;20035;-65
2022/05/23 06:52:51;;;;;;;;;;;19.60;99.90;;;;;;5138858;27;20023;-64
2022/05/23 06:55:16;;;;;;;4.82;2.58;;;19.50;99.90;;;;;;5139459;27;20414;-65
2022/05/23 06:57:43;;;;;;;8.88;5.80;;;19.60;99.90;;;;;;5138621;27;20027;-66
2022/05/23 07:00:09;;;;;;;4.93;2.97;;;19.70;99.90;;;;;;5136439;27;20028;-63
2022/05/23 07:02:36;;;;;;;5.13;2.55;;;19.90;99.90;;;;;;5136024;27;20063;-64
2022/05/23 07:13:13;;;;;;;6.03;2.70;;;20.00;99.90;;;;;;5137505;27;20087;-64
2022/05/23 07:15:46;;;;;;;4.45;2.40;;;20.10;99.90;;;;;;5136780;27;20027;-64
2022/05/23 07:18:16;;;;;;;5.68;2.70;;;20.20;99.90;;;;;;5136733;27;20035;-64
2022/05/23 07:20:42;;;;;;;10.88;3.05;;;20.40;99.90;;;;;;5136612;27;20051;-64
2022/05/23 07:23:08;;;;;;;4.13;2.28;;;20.50;99.90;;;;;;5135651;27;20485;-65
2022/05/23 07:25:34;;;;;;;6.25;2.40;;;20.80;99.90;;;;;;5136658;27;20062;-64
2022/05/23 07:27:59;;;;;;;6.45;3.20;;;20.80;99.90;;;;;;5139689;27;20027;-65
2022/05/23 07:30:25;;;;;;;3.25;2.45;;;20.90;99.90;;;;;;5139311;27;20031;-65
2022/05/23 07:32:51;;;;;;;4.75;2.55;;;21.00;99.90;;;;;;5137301;27;20031;-63
2022/05/23 07:35:17;;;;;;;6.65;2.75;;;21.00;99.90;;;;;;5135624;27;20437;-65
2022/05/23 07:37:43;;;;;;;5.45;2.47;;;20.80;99.90;;;;;;5136387;27;20016;-64
2022/05/23 07:40:10;;;;;;;3.72;1.95;;;20.50;99.90;;;;;;5135070;27;20031;-65
2022/05/23 07:42:36;;;;;;;5.60;2.78;;;20.40;99.90;;;;;;5136782;27;20477;-64
2022/05/23 07:45:02;;;;;;;5.43;2.95;;;20.20;99.90;;;;;;5136053;27;20053;-65
2022/05/23 07:47:28;;;;;;;5.63;3.20;;;20.10;99.90;;;;;;5136277;27;20557;-64
2022/05/23 07:49:54;;;;;;;4.35;3.10;;;20.10;99.90;;;;;;5134620;27;20046;-64
2022/05/23 07:52:20;;;;;;;5.22;2.70;;;20.20;99.90;;;;;;5136103;27;20084;-64
2022/05/23 08:00:32;;;;;;;6.00;2.70;;;20.80;99.90;;;;;;5080578;27;20605;-64
2022/05/23 08:03:04;;;;;;;5.82;2.90;;;20.80;99.90;;;;;;5136959;27;20023;-64
2022/05/23 08:05:30;;;;;;;8.90;3.63;;;20.90;99.90;;;;;;5138686;27;20031;-65
2022/05/23 08:07:56;;;;;;;4.80;3.15;;;21.20;99.90;;;;;;5136758;27;20031;-63
2022/05/23 08:10:22;;;;;;;5.43;2.97;;;21.90;99.90;;;;;;5136577;27;20118;-64
2022/05/23 08:12:52;;;;;;;5.07;2.50;;;23.30;99.90;;;;;;5134606;27;20107;-66
2022/05/23 08:15:19;;;;;;;6.03;2.97;;;25.20;99.90;;;;;;5135677;27;20080;-64
2022/05/23 08:17:45;;;;;;;3.65;2.38;;;27.10;99.90;;;;;;5135954;27;20033;-64
2022/05/23 08:20:11;;;;;;;5.32;2.63;;;28.50;98.60;;;;;;5135492;27;20106;-65
2022/05/23 08:22:37;;;;;;;5.05;2.60;;;29.70;95.80;;;;;;5136163;27;20088;-67
2022/05/23 08:25:03;;;;;;;3.83;2.75;;;30.50;93.60;;;;;;5135880;27;20052;-64
2022/05/23 08:27:29;;;;;;;5.68;2.30;;;30.40;93.40;;;;;;5134750;27;20033;-65
2022/05/23 08:29:54;;;;;;;3.55;2.30;;;31.00;92.20;;;;;;5134243;27;20027;-64
2022/05/23 08:32:21;;;;;;;9.77;6.20;;;31.10;91.60;;;;;;5135212;27;20023;-65
2022/05/23 08:34:49;;;;;;;4.35;2.53;;;31.40;90.30;;;;;;5135413;27;20392;-64
2022/05/23 08:37:15;;;;;;;5.20;2.53;;;32.50;88.90;;;;;;5135383;27;20034;-65
2022/05/23 08:39:41;;;;;;;4.68;2.78;;;32.50;84.80;;;;;;5134002;27;20023;-65
2022/05/23 08:42:32;;;;;;;4.75;2.30;;;31.90;85.80;;;;;;5135616;27;20031;-65
2022/05/23 08:45:12;;;;;;;4.25;2.70;;;31.70;86.10;;;;;;5134784;27;20053;-64
2022/05/23 08:47:49;;;;;;;4.75;2.50;;;32.10;86.10;;;;;;5134400;27;20549;-64
2022/05/23 08:50:33;;;;;;;5.55;2.67;;;32.90;83.20;;;;;;5133679;27;20027;-64
2022/05/23 08:53:10;;;;;;;4.15;2.60;;;33.30;80.80;;;;;;5133631;27;20486;-66
2022/05/23 08:55:42;;;;;;;3.13;2.05;;;32.00;82.10;;;;;;5134746;27;20115;-63
2022/05/23 08:58:20;;;;;;;5.63;2.42;;;31.00;83.90;;;;;;5134649;27;20018;-65
2022/05/23 09:00:56;;;;;;;3.45;2.92;;;29.70;87.00;;;;;;5133349;27;20491;-64
2022/05/23 09:03:28;;;;;;;7.28;3.03;;;28.40;90.30;;;;;;5134883;27;20037;-65
2022/05/23 09:06:15;;;;;;;6.45;3.17;;;27.40;92.00;;;;;;5134866;27;20110;-65
2022/05/23 09:08:47;;;;;;;;;;;26.50;93.00;;;;;;5134791;27;20023;-65
2022/05/23 09:11:28;;;;;;;4.65;2.67;;;26.20;94.50;;;;;;5134298;27;20395;-65
2022/05/23 09:13:55;;;;;;;5.38;2.72;;;26.90;94.00;;;;;;5135017;27;20023;-64
2022/05/23 09:16:25;;;;;;;5.18;3.35;;;26.90;93.60;;;;;;5134298;27;20026;-63
2022/05/23 09:19:02;;;;;;;5.80;3.00;;;26.70;93.40;;;;;;5135041;27;20015;-66
2022/05/23 09:22:12;;;;;;;5.07;2.67;;;25.90;94.60;;;;;;5134463;27;20023;-64
2022/05/23 09:24:16;;;;;;;6.83;2.50;;;26.20;95.00;;;;;;5134150;27;20504;-65
2022/05/23 09:26:43;;;;;;;5.38;2.40;;;28.20;92.40;;;;;;5132937;27;20113;-64
2022/05/23 09:29:09;;;;;;;4.47;2.58;;;29.70;90.60;;;;;;5132925;27;20376;-65
2022/05/23 09:31:54;;;;;;;4.68;2.13;;;31.00;87.70;;;;;;5133933;27;20098;-64
2022/05/23 09:34:48;;;;;;;3.97;2.30;;;31.50;83.80;;;;;;5134156;27;20030;-64
2022/05/23 09:37:19;;;;;;;4.28;2.38;;;32.50;81.10;;;;;;5132455;27;20110;-67
2022/05/23 09:39:56;;;;;;;4.75;2.40;;;33.60;79.40;;;;;;5133623;27;20026;-65
2022/05/23 09:48:15;;;;;;;5.47;2.90;;;34.50;72.90;;;;;;5133899;27;20027;-64
2022/05/23 09:50:59;;;;;;;5.43;2.75;;;33.50;74.20;;;;;;5133583;27;20473;-64
2022/05/23 09:53:30;;;;;;;5.25;3.17;;;32.60;75.40;;;;;;5134014;27;20476;-64
2022/05/23 09:56:36;;;;;;;4.60;2.70;;;31.10;77.90;;;;;;5133978;27;20065;-64
2022/05/23 09:59:10;;;;;;;5.00;2.70;;;30.30;80.20;;;;;;5133483;27;20020;-65
2022/05/23 10:01:36;;;;;;;5.95;3.33;;;29.40;82.90;;;;;;5132310;27;20034;-64
2022/05/23 10:04:15;;;;;;;4.28;2.70;;;29.10;83.90;;;;;;5133544;27;20023;-65
2022/05/23 10:06:48;;;;;;;4.13;2.67;;;28.50;85.80;;;;;;5133886;27;20030;-65
2022/05/23 10:09:33;;;;;;;5.63;2.97;;;27.70;88.20;;;;;;5134028;27;20046;-64
2022/05/23 10:12:06;;;;;;;3.90;2.80;;;27.00;90.50;;;;;;5133898;27;20027;-64
2022/05/23 10:14:51;;;;;;;4.88;3.58;;;26.60;91.60;;;;;;5133529;27;20038;-65
2022/05/23 10:17:34;;;;;;;6.20;3.50;;;26.20;92.30;;;;;;5133917;27;20023;-64
2022/05/23 10:20:23;;;;;;;5.53;3.13;;;25.60;93.50;;;;;;5134202;27;20023;-64
2022/05/23 10:22:55;;;;;;;4.88;3.63;;;25.10;94.50;;;;;;5133520;27;20430;-65
2022/05/23 10:25:20;;;;;;;6.40;4.07;;;24.40;95.80;;;;;;5132270;28;20075;-64
2022/05/23 10:27:47;;;;;;;;;;;24.00;97.90;;;;;;5134622;28;20019;-65
2022/05/23 10:30:17;;;;;;;7.35;4.03;;;23.70;99.10;;;;;;5133746;27;20345;-65
2022/05/23 10:32:48;;;;;;;7.72;3.97;;;23.50;99.90;;;;;;5133655;27;20058;-64
2022/05/23 10:35:36;;;;;;;8.50;4.93;;;23.20;99.90;;;;;;5133539;27;20019;-65
2022/05/23 10:44:17;;;;;;;7.97;5.13;;;22.60;99.90;;;;;;5133140;28;20071;-64
2022/05/23 10:46:47;;;;;;;9.95;6.40;;;22.50;99.90;;;;;;5133584;27;20034;-64
2022/05/23 10:49:34;;;;;;;11.43;7.43;;;22.10;99.90;;;;;;5133680;27;20107;-64
2022/05/23 10:52:40;;;;;;;8.88;6.45;;;21.60;99.90;;;;;;5133554;27;20034;-65
2022/05/23 10:55:30;;;;;;;11.80;7.30;;;21.40;99.90;;;;;;5050774;28;20075;-64
2022/05/23 10:58:18;;;;;;;10.10;6.65;;;21.10;99.90;;;;;;5033569;28;20029;-65
2022/05/23 11:01:01;;;;;;;13.18;6.88;;;20.80;99.90;;;;;;5050190;28;20029;-65
2022/05/23 11:04:03;;;;;;;10.02;5.82;;;20.60;99.90;;;;;;5050569;28;20025;-64
2022/05/23 11:07:02;;;;;;;9.95;6.40;;;20.30;99.90;;;;;;5051761;28;20545;-64
2022/05/23 11:09:45;;;;;;;7.60;5.93;;;20.10;99.90;;;;;;5051549;28;20107;-65
2022/05/23 11:12:15;;;;;;;12.82;5.90;;;20.00;99.90;;;;;;5055284;28;20064;-66
2022/05/23 11:14:49;;;;;;;10.88;6.55;;;19.90;99.90;;;;;;5038794;28;20032;-65
2022/05/23 11:17:28;;;;;;;9.93;6.30;;;19.80;99.90;;;;;;5055770;28;20053;-66
2022/05/23 11:20:03;;;;;;;7.53;4.75;;;19.80;99.90;;;;;;5056214;28;20475;-64
2022/05/23 11:22:43;;;;;;;6.18;3.55;;;19.80;99.90;;;;;;5055542;28;20111;-65
2022/05/23 11:25:52;;;;;;;7.30;3.60;;;19.80;99.90;;;;;;5056185;28;20033;-65
2022/05/23 11:34:30;;;;;;;6.10;4.50;;;20.00;99.90;;;;;;5073982;28;20078;-65
2022/05/23 11:39:59;;;;;;;9.95;3.35;;;20.10;99.90;;;;;;5073474;28;20386;-64
2022/05/23 11:42:42;;;;;;;5.72;4.10;;;20.20;99.90;;;;;;5074055;28;20036;-65
2022/05/23 11:47:55;;;;;;;7.15;3.30;;;20.70;99.90;;;;;;5074012;28;20067;-66
2022/05/23 11:50:28;;;;;;;7.03;3.15;;;20.90;99.90;;;;;;5074211;28;20028;-66
2022/05/23 11:53:23;;;;;;;8.55;3.60;;;21.20;99.90;;;;;;5073983;28;20033;-65
2022/05/23 11:55:55;;;;;;;8.65;3.40;;;21.40;99.90;;;;;;5073577;28;20028;-66
2022/05/23 11:58:48;;;;;;;5.90;2.83;;;21.60;99.90;;;;;;5085887;27;20027;-64
2022/05/23 12:01:14;;;;;;;6.28;2.97;;;21.80;99.90;;;;;;5136330;27;20047;-65
2022/05/23 12:03:55;;;;;;;9.23;5.00;;;21.80;99.90;;;;;;5135903;27;20107;-64
2022/05/23 12:06:23;;;;;;;7.53;3.17;;;21.80;99.90;;;;;;5135956;27;20472;-65
2022/05/23 12:08:58;;;;;;;5.32;3.05;;;21.70;99.90;;;;;;5136188;27;20051;-64
2022/05/23 12:11:30;;;;;;;11.48;4.82;;;21.70;99.90;;;;;;5135979;27;20023;-67
2022/05/23 12:14:26;;;;;;;8.18;3.00;;;21.80;99.90;;;;;;5135476;27;20047;-64
2022/05/23 12:16:55;;;;;;;7.40;3.10;;;21.80;99.90;;;;;;5133265;27;20050;-65
2022/05/23 12:19:20;;;;;;;8.90;3.50;;;21.90;99.90;;;;;;5135600;27;20019;-65
2022/05/23 12:21:47;;;;;;;8.40;3.70;;;21.90;99.90;;;;;;5135375;27;20059;-66
2022/05/23 12:24:24;;;;;;;8.93;3.75;;;21.70;99.90;;;;;;5135600;27;20028;-64
2022/05/23 12:26:53;;;;;;;8.55;3.50;;;21.60;99.90;;;;;;5135680;27;20106;-65
2022/05/23 12:29:30;;;;;;;7.65;3.28;;;21.60;99.90;;;;;;5135456;27;20103;-64
2022/05/23 12:32:18;;;;;;;8.27;3.17;;;21.60;99.90;;;;;;5133735;27;20091;-66
2022/05/23 12:34:47;;;;;;;10.60;5.50;;;21.70;99.90;;;;;;5135443;27;20015;-65
2022/05/23 12:37:33;;;;;;;5.85;3.35;;;21.70;99.90;;;;;;5135143;27;20016;-64
2022/05/23 12:40:25;;;;;;;9.40;3.70;;;21.70;99.90;;;;;;5135475;27;20106;-66
2022/05/23 12:43:15;;;;;;;8.90;3.72;;;21.80;99.90;;;;;;5135612;27;20369;-66
2022/05/23 12:46:10;;;;;;;7.00;3.53;;;21.80;99.90;;;;;;5135180;27;20491;-67
2022/05/23 12:49:03;;;;;;;8.50;3.50;;;22.00;99.90;;;;;;5133303;27;20096;-67
2022/05/23 12:52:05;;;;;;;8.32;4.00;;;22.20;99.90;;;;;;5135185;27;20022;-66
2022/05/23 12:54:44;;;;;;;11.43;4.25;;;22.50;99.90;;;;;;5135111;27;20023;-66
2022/05/23 12:57:26;;;;;;;8.63;4.03;;;22.90;99.90;;;;;;5134896;27;20080;-67
2022/05/23 12:59:57;;;;;;;6.53;3.90;;;23.20;99.90;;;;;;5134862;27;20023;-65
2022/05/23 13:02:26;;;;;;;9.45;4.47;;;23.40;99.90;;;;;;5135274;27;20084;-66
2022/05/23 13:05:20;;;;;;;6.30;3.30;;;23.60;99.90;;;;;;5134886;27;20464;-65
2022/05/23 13:08:06;;;;;;;8.10;4.05;;;23.90;99.90;;;;;;5130320;27;20118;-65
2022/05/23 13:10:41;;;;;;;8.25;3.67;;;24.10;99.90;;;;;;5134905;27;20027;-66
2022/05/23 13:13:21;;;;;;;5.53;3.30;;;24.10;99.90;;;;;;5134613;27;20110;-66
2022/05/23 13:15:46;;;;;;;11.13;6.32;;;24.10;99.90;;;;;;5134551;27;20019;-66
2022/05/23 13:23:45;;;;;;;8.57;4.95;;;24.20;99.90;;;;;;5134310;27;20034;-65
2022/05/23 13:26:11;;;;;;;8.90;3.92;;;24.30;99.90;;;;;;5134671;27;20038;-66
2022/05/23 13:28:44;;;;;;;;;;;24.40;99.90;;;;;;5135166;27;20023;-66
2022/05/23 13:31:26;;;;;;;7.45;4.18;;;24.30;99.90;;;;;;5133388;27;19914;-66
2022/05/23 13:33:55;;;;;;;7.57;4.20;;;24.30;99.90;;;;;;5132364;27;20019;-66
2022/05/23 13:36:21;;;;;;;6.90;4.55;;;24.20;99.90;;;;;;5134081;27;20042;-66
2022/05/23 13:39:03;;;;;;;;;;;24.20;99.90;;;;;;5132975;27;20477;-66
2022/05/23 13:41:31;;;;;;;8.45;5.00;;;24.20;99.90;;;;;;5134341;27;19926;-65
2022/05/23 13:43:58;;;;;;;7.95;4.30;;;24.20;99.90;;;;;;5134102;27;20028;-67
2022/05/23 13:46:31;;;;;;;10.05;5.20;;;24.20;99.90;;;;;;5134340;27;20384;-66
2022/05/23 13:49:11;;;;;;;15.80;5.18;;;24.20;99.90;;;;;;5134048;27;20115;-67
2022/05/23 13:51:44;;;;;;;8.90;4.55;;;24.30;99.90;;;;;;5134044;27;20026;-67
2022/05/23 13:54:40;;;;;;;9.00;3.70;;;24.30;99.90;;;;;;5134078;27;20023;-68
2022/05/23 13:57:16;;;;;;;9.43;4.32;;;24.50;99.90;;;;;;5131600;27;20108;-66
2022/05/23 13:59:49;;;;;;;9.82;4.03;;;24.50;99.90;;;;;;5132081;27;20045;-65
2022/05/23 14:02:21;;;;;;;9.07;4.10;;;24.50;99.90;;;;;;5133989;27;20024;-66
2022/05/23 14:04:49;;;;;;;6.35;4.00;;;24.50;99.90;;;;;;5133611;27;20046;-67
2022/05/23 14:07:18;;;;;;;8.27;4.05;;;24.60;99.90;;;;;;5133883;27;20016;-66
2022/05/23 14:09:47;;;;;;;7.95;4.07;;;24.60;99.90;;;;;;5134163;27;20084;-66
2022/05/23 14:12:18;;;;;;;5.97;3.85;;;24.70;99.90;;;;;;5133625;27;20352;-66
2022/05/23 14:15:20;;;;;;;6.78;3.70;;;24.80;99.90;;;;;;5133658;27;20047;-65
2022/05/23 14:17:49;;;;;;;8.15;3.58;;;25.00;99.90;;;;;;5050307;28;20063;-65